Lubbock, TX

5:29 PM CDT on May 25, 2015 (GMT -0500)
Carlisle Park | | Change Station
CLOSE
Current Station
Personal Weather Station
Location: Lubbock, TX
Elevation: 3215 ft
Nearby Weather Stations

Elev 3215 ft 33.57 °N, 101.87 °W | Updated 4 seconds ago

Partly Cloudy
Partly Cloudy
76.1 °F
Feels Like 78 °F
N
4.5
Wind Variable Wind from South
Gusts 4.5 mph

Today
High -- | Low -- °F
--% Chance of Precip.
Yesterday
High -- | Low -- °F
Precip. -- in
6:40 AM 8:48 PM
First Quarter, 52% visible
Pressure 29.76 in
Visibility 10.0 miles
Clouds Few 4500 ft
Few 16000 ft
Few 26000 ft
Heat Index 78 °F
Dew Point 53 °F
Humidity 45%
Rainfall 0.20 in
Snow Depth Not available.
UV 7 out of 12
Pollen 4.90 out of 12
Air Quality Not available.
Flu Activity Sporadic
METAR KLBB 252153Z 18005KT 10SM FEW045 FEW160 FEW260 22/11 A2987 RMK AO2 SLP077 T02170111 $

More Conditions Fewer Conditions

Pressure 29.76 in
Visibility 10.0 miles
Clouds Few 4500 ft
Few 16000 ft
Few 26000 ft
Heat Index 78 °F
Dew Point 53 °F
Humidity 45%
Rainfall 0.20 in
Snow Depth Not available.
UV 7 out of 12
Pollen 4.90 out of 12
Air Quality Not available.
Flu Activity Sporadic
METAR KLBB 252153Z 18005KT 10SM FEW045 FEW160 FEW260 22/11 A2987 RMK AO2 SLP077 T02170111 $

More Conditions Fewer Conditions

10-Day Weather Forecast

Almanac

Astronomy

May. 25, 2015 Rise Set
Actual Time
Civil Twilight
Nautical Twilight
Astronomical Twilight
Moon
Length of Visible Light
Length of Day
Tomorrow will be .
, % of the Moon is Illuminated

Today's Extremes

State Highs State Lows

Community

WunderPhotos

Upload Photos

1,824,149 photos uploaded!

WunderBlogs® & News

Nearby

Air Quality

  Air Quality AQ Index Pollutant
Not available.

Snow Depth

Station Depth Elevation

Earthquake Activity

City Distance Mag. Time & Date
Minimum magnitude displayed is 2.5.

Coastal Water Temperatures

Place Temperature

Stations

Nearby Weather Stations

Station Location Temp. Windchill Dew Point Humidity Wind Precip. Elev Updated Type